Time;durP1;ratioP1;P1;durP2;ratioP2;P2;SDS_P1;SDS_P2;PMS_P1;PMS_P2;Temp;Humidity;BMP_temperature;BMP_pressure;BME280_temperature;BME280_humidity;BME280_pressure;Samples;Min_cycle;Max_cycle;Signal;HPM_P1;HPM_P2
2023/10/04 00:01:41;;;;;;;16.77;13.00;;;;;;;24.59;45.99;101075.22;5035079;28;20104;-41
2023/10/04 00:04:08;;;;;;;17.35;13.27;;;;;;;24.42;46.31;101071.06;5034988;28;20045;-41
2023/10/04 00:06:34;;;;;;;15.80;9.65;;;;;;;24.14;47.23;101071.94;5034587;28;20061;-40
2023/10/04 00:09:03;;;;;;;10.02;4.70;;;;;;;24.35;47.30;101069.81;5034973;28;20028;-40
2023/10/04 00:11:31;;;;;;;5.70;3.63;;;;;;;24.31;47.02;101074.19;5025181;28;20029;-40
2023/10/04 00:13:57;;;;;;;8.63;3.55;;;;;;;24.02;47.22;101077.81;5034881;28;20052;-40
2023/10/04 00:16:26;;;;;;;9.30;4.40;;;;;;;23.49;48.72;101068.75;5033688;28;20036;-40
2023/10/04 00:18:54;;;;;;;6.78;4.15;;;;;;;23.04;49.82;101062.53;5015141;28;20061;-40
2023/10/04 00:21:20;;;;;;;9.50;3.67;;;;;;;23.32;50.19;101070.00;5015151;28;20033;-40
2023/10/04 00:23:47;;;;;;;7.72;4.00;;;;;;;23.10;50.31;101066.88;5015295;28;20026;-40
2023/10/04 00:26:13;;;;;;;5.63;3.20;;;;;;;22.90;50.89;101063.19;5015130;28;20022;-40
2023/10/04 00:28:39;;;;;;;6.72;3.70;;;;;;;22.98;51.36;101064.47;5016277;28;20033;-40
2023/10/04 00:31:06;;;;;;;6.85;4.20;;;;;;;23.15;50.83;101053.16;5034720;28;20025;-41
2023/10/04 00:33:35;;;;;;;6.43;3.53;;;;;;;22.99;51.47;101054.41;5017164;28;20524;-40
2023/10/04 00:36:04;;;;;;;5.68;3.40;;;;;;;23.07;51.93;101051.06;5034708;28;20104;-40
2023/10/04 00:38:31;;;;;;;7.93;3.80;;;;;;;22.96;52.27;101047.59;5034271;28;20032;-41
2023/10/04 00:40:57;;;;;;;6.18;3.45;;;;;;;23.10;52.07;101045.03;5034575;28;20030;-40
2023/10/04 00:43:23;;;;;;;8.30;3.85;;;;;;;22.92;52.42;101047.31;5033562;28;20444;-40
2023/10/04 00:45:50;;;;;;;4.82;3.25;;;;;;;22.76;53.01;101050.41;5030290;28;20034;-40
2023/10/04 00:48:20;;;;;;;7.55;3.65;;;;;;;22.94;52.65;101046.25;5033467;28;20477;-39
2023/10/04 00:50:47;;;;;;;7.07;3.78;;;;;;;22.76;53.46;101053.13;5034232;28;20021;-40
2023/10/04 00:53:16;;;;;;;8.98;4.05;;;;;;;22.52;54.36;101053.81;5034381;28;20033;-40
2023/10/04 00:55:45;;;;;;;8.75;3.80;;;;;;;22.53;54.48;101046.44;5001361;28;20022;-40
2023/10/04 00:58:14;;;;;;;7.18;3.70;;;;;;;22.53;54.56;101041.00;5032624;28;20116;-40
2023/10/04 01:00:42;;;;;;;7.60;3.80;;;;;;;22.58;54.69;101049.97;5034208;28;20359;-40
2023/10/04 01:03:13;;;;;;;8.65;3.70;;;;;;;22.39;55.24;101038.88;5034210;28;20386;-40
2023/10/04 01:05:47;;;;;;;7.57;3.80;;;;;;;22.33;55.26;101037.28;5033620;28;20048;-40
2023/10/04 01:08:15;;;;;;;9.35;4.10;;;;;;;22.27;55.92;101043.84;5031901;28;20037;-40
2023/10/04 01:10:44;;;;;;;7.95;4.10;;;;;;;22.13;56.84;101042.81;5033872;28;20034;-40
2023/10/04 01:13:11;;;;;;;9.02;4.55;;;;;;;22.25;56.56;101042.50;5033071;28;20030;-39
2023/10/04 01:15:39;;;;;;;7.60;4.50;;;;;;;22.17;56.83;101038.44;5020246;28;20108;-39
2023/10/04 01:18:10;;;;;;;4.95;4.18;;;;;;;22.17;56.88;101030.25;5032647;28;20026;-39
2023/10/04 01:20:38;;;;;;;6.60;3.85;;;;;;;22.11;57.19;101037.66;5032415;28;20071;-39
2023/10/04 01:23:10;;;;;;;8.15;3.72;;;;;;;22.05;57.75;101037.91;5031799;28;20083;-40
2023/10/04 01:25:44;;;;;;;7.38;3.67;;;;;;;22.06;57.74;101032.19;5032930;28;20032;-40
2023/10/04 01:28:12;;;;;;;7.07;3.63;;;;;;;21.99;57.68;101031.66;5033406;28;20528;-40
2023/10/04 01:30:40;;;;;;;8.98;4.07;;;;;;;21.93;58.08;101031.94;5025751;28;20075;-40
2023/10/04 01:33:10;;;;;;;10.25;4.97;;;;;;;21.98;58.08;101023.75;5025296;28;20120;-39
2023/10/04 01:35:38;;;;;;;8.23;4.75;;;;;;;22.04;58.06;101026.19;5053035;28;20036;-40
2023/10/04 01:38:06;;;;;;;8.82;4.50;;;;;;;21.72;58.82;101021.09;5037911;28;20056;-40
2023/10/04 01:40:35;;;;;;;8.55;4.97;;;;;;;21.65;59.06;101028.72;5033852;28;20130;-39
2023/10/04 01:43:17;;;;;;;7.65;3.65;;;;;;;21.66;59.30;101016.75;5033403;28;20144;-40
2023/10/04 01:45:48;;;;;;;7.90;3.90;;;;;;;21.63;59.29;101017.31;5033739;28;20363;-39
2023/10/04 01:48:23;;;;;;;9.35;4.32;;;;;;;21.67;59.43;101020.31;5033282;28;20026;-39
2023/10/04 01:50:53;;;;;;;5.85;4.05;;;;;;;21.56;59.76;101023.03;5013879;28;20026;-39
2023/10/04 01:53:29;;;;;;;5.43;3.97;;;;;;;21.34;60.25;101011.63;5013727;28;20026;-39
2023/10/04 01:55:56;;;;;;;10.07;4.60;;;;;;;21.39;60.45;101008.91;5021825;28;20072;-40
2023/10/04 01:58:25;;;;;;;7.75;4.25;;;;;;;21.30;60.95;101011.34;5052879;28;20029;-39
2023/10/04 02:00:53;;;;;;;7.70;3.90;;;;;;;21.37;60.64;101015.69;5053734;28;20044;-39
2023/10/04 02:03:20;;;;;;;10.02;4.43;;;;;;;21.09;61.18;101013.22;5019652;28;20117;-40
2023/10/04 02:05:52;;;;;;;7.45;4.47;;;;;;;21.13;61.24;101020.84;5017637;28;20091;-39
2023/10/04 02:08:19;;;;;;;11.32;4.55;;;;;;;21.08;61.38;101013.50;5020268;28;20037;-39
2023/10/04 02:10:45;;;;;;;7.82;4.20;;;;;;;20.98;62.00;101027.91;5012880;28;20030;-39
2023/10/04 02:13:19;;;;;;;10.00;4.90;;;;;;;20.75;62.85;101028.44;5030542;28;20018;-39
2023/10/04 02:15:50;;;;;;;7.17;4.33;;;;;;;20.69;63.39;101041.19;5033430;28;20113;-41
2023/10/04 02:18:18;;;;;;;9.68;4.65;;;;;;;20.56;64.01;101036.28;5039031;28;20262;-40
2023/10/04 02:20:47;;;;;;;9.23;5.03;;;;;;;20.52;64.40;101040.63;5022273;28;20077;-40
2023/10/04 02:23:14;;;;;;;9.82;4.97;;;;;;;20.54;64.46;101041.16;5013025;28;20386;-40
2023/10/04 02:25:40;;;;;;;6.57;4.40;;;;;;;20.57;64.66;101040.63;5012946;28;20371;-39
2023/10/04 02:28:11;;;;;;;7.30;4.72;;;;;;;20.50;65.45;101046.31;5012872;28;20103;-39
2023/10/04 02:30:40;;;;;;;6.57;4.32;;;;;;;20.37;65.66;101040.53;5025157;28;20099;-39
2023/10/04 02:33:13;;;;;;;10.15;5.38;;;;;;;20.51;65.63;101045.25;5031378;28;20026;-40
2023/10/04 02:35:48;;;;;;;9.30;4.88;;;;;;;20.31;66.13;101047.84;5031449;28;20186;-40
2023/10/04 02:38:26;;;;;;;;;;;;;;;20.33;66.36;101050.31;5032993;28;20033;-38
2023/10/04 02:40:53;;;;;;;9.13;4.82;;;;;;;20.19;66.76;101052.69;5032584;28;19924;-40
2023/10/04 02:43:21;;;;;;;7.57;4.70;;;;;;;20.04;67.19;101056.13;5032243;28;20026;-40
2023/10/04 02:45:49;;;;;;;9.48;4.82;;;;;;;20.01;67.67;101057.50;5032092;28;20075;-39
2023/10/04 02:48:15;;;;;;;8.25;5.15;;;;;;;20.13;67.77;101064.63;5031116;28;20053;-40
2023/10/04 02:50:43;;;;;;;9.13;5.00;;;;;;;20.15;67.84;101067.88;5032362;28;20029;-40
2023/10/04 02:53:12;;;;;;;6.18;4.75;;;;;;;20.15;67.71;101067.88;5014818;28;20025;-40
2023/10/04 02:55:40;;;;;;;10.65;5.05;;;;;;;19.96;69.07;101070.22;5031997;28;20032;-38
2023/10/04 02:58:07;;;;;;;9.15;5.38;;;;;;;19.83;69.69;101070.72;5031772;28;20029;-39
2023/10/04 03:00:42;;;;;;;13.60;6.07;;;;;;;19.84;69.83;101073.16;5050948;28;20029;-39
2023/10/04 03:03:08;;;;;;;9.95;5.05;;;;;;;19.96;69.28;101072.94;5052008;28;20412;-39
2023/10/04 03:05:36;;;;;;;8.30;4.78;;;;;;;19.71;70.54;101076.31;5052051;28;20044;-39
2023/10/04 03:08:08;;;;;;;6.03;4.88;;;;;;;19.66;70.39;101079.00;5034494;28;20473;-39
2023/10/04 03:10:40;;;;;;;9.40;5.22;;;;;;;19.58;70.81;101072.13;5033571;28;20034;-39
2023/10/04 03:13:16;;;;;;;8.38;4.88;;;;;;;19.51;71.34;101071.53;5019270;28;20109;-40
2023/10/04 03:15:46;;;;;;;9.00;4.57;;;;;;;19.38;72.32;101070.06;5015830;28;20651;-39
2023/10/04 03:18:18;;;;;;;7.93;5.00;;;;;;;19.41;71.87;101068.72;5015469;28;20025;-40
2023/10/04 03:21:20;;;;;;;11.10;5.13;;;;;;;19.49;71.50;101065.56;5011288;28;20033;-40
2023/10/04 03:23:40;;;;;;;11.40;6.47;;;;;;;19.63;70.49;101072.19;5009272;28;20486;-40
2023/10/04 03:26:06;;;;;;;6.25;4.82;;;;;;;19.43;71.22;101069.28;5011954;28;20447;-40
2023/10/04 03:28:36;;;;;;;9.45;6.28;;;;;;;19.40;71.39;101072.53;5011861;28;20088;-40
2023/10/04 03:31:18;;;;;;;8.63;4.90;;;;;;;19.32;71.52;101075.69;5015490;28;20042;-41
2023/10/04 03:33:45;;;;;;;8.63;4.72;;;;;;;19.28;71.21;101074.59;5012115;28;20055;-41
2023/10/04 03:36:17;;;;;;;9.13;5.35;;;;;;;19.19;71.99;101069.63;5011755;28;20034;-40
2023/10/04 03:38:44;;;;;;;8.65;5.22;;;;;;;19.14;72.24;101066.88;5012145;28;20446;-40
2023/10/04 03:41:11;;;;;;;5.85;4.50;;;;;;;19.15;71.77;101071.22;5011979;28;20018;-40
2023/10/04 03:43:37;;;;;;;6.05;4.32;;;;;;;19.13;71.66;101062.53;5022473;28;20100;-40
2023/10/04 03:46:24;;;;;;;8.45;5.13;;;;;;;19.14;71.59;101076.91;5051216;28;20029;-40
2023/10/04 03:48:51;;;;;;;8.13;4.63;;;;;;;19.08;71.71;101078.75;5050526;28;20394;-40
2023/10/04 03:51:21;;;;;;;7.85;5.00;;;;;;;19.11;71.91;101082.84;5051689;28;20508;-40
2023/10/04 03:53:49;;;;;;;9.18;5.38;;;;;;;19.08;72.10;101076.03;5033469;28;20021;-40
2023/10/04 03:56:16;;;;;;;8.45;5.25;;;;;;;19.11;71.82;101088.28;5049509;28;20470;-40
2023/10/04 03:58:42;;;;;;;10.23;5.72;;;;;;;19.04;72.60;101088.47;5031265;28;20133;-40
2023/10/04 04:01:10;;;;;;;8.23;5.10;;;;;;;19.02;72.64;101079.78;5013687;28;20022;-40
2023/10/04 04:03:37;;;;;;;7.65;5.20;;;;;;;18.90;73.32;101079.94;5031006;28;20057;-39
2023/10/04 04:06:05;;;;;;;7.07;4.70;;;;;;;18.97;72.95;101090.56;5030741;28;20041;-39
2023/10/04 04:08:31;;;;;;;7.47;5.25;;;;;;;18.94;72.66;101082.97;5030862;28;20045;-39
2023/10/04 04:10:57;;;;;;;9.40;5.35;;;;;;;18.98;72.97;101084.88;5031026;28;20076;-39
2023/10/04 04:13:24;;;;;;;10.10;5.65;;;;;;;18.86;73.19;101094.25;5031442;28;20434;-41
2023/10/04 04:15:51;;;;;;;8.35;5.43;;;;;;;18.85;73.03;101098.03;5031510;28;20101;-40
2023/10/04 04:18:21;;;;;;;6.20;5.30;;;;;;;18.81;73.30;101097.72;5031369;28;20420;-40
2023/10/04 04:20:53;;;;;;;6.50;4.57;;;;;;;18.79;72.88;101099.06;5029885;28;20501;-39
2023/10/04 04:23:21;;;;;;;9.65;5.60;;;;;;;18.82;72.71;101095.81;5031110;28;20033;-39
2023/10/04 04:25:48;;;;;;;7.32;5.25;;;;;;;18.73;73.01;101096.28;5031216;28;20021;-40
2023/10/04 04:28:17;;;;;;;7.32;5.20;;;;;;;18.62;73.71;101080.13;5030896;28;20040;-39
2023/10/04 04:30:46;;;;;;;7.75;5.32;;;;;;;18.62;73.50;101086.38;5030823;28;20025;-39
2023/10/04 04:33:16;;;;;;;6.57;4.75;;;;;;;18.60;73.60;101088.53;5034895;28;20075;-40
2023/10/04 04:40:48;;;;;;;10.43;5.10;;;;;;;18.48;73.61;101091.34;5035177;28;20604;-40
2023/10/04 04:45:51;;;;;;;5.75;4.15;;;;;;;18.43;72.83;101095.88;5034740;28;20048;-39
2023/10/04 04:48:23;;;;;;;5.78;4.10;;;;;;;18.40;72.34;101093.69;5034511;28;20083;-40
2023/10/04 04:51:12;;;;;;;6.47;3.97;;;;;;;18.34;72.31;101103.66;5034364;28;20148;-40
2023/10/04 04:53:40;;;;;;;6.05;3.67;;;;;;;18.34;71.06;101094.69;5035038;28;20056;-40
2023/10/04 04:56:16;;;;;;;5.35;3.17;;;;;;;18.28;70.39;101096.53;5034357;28;20034;-40
2023/10/04 04:58:55;;;;;;;4.90;3.25;;;;;;;18.25;69.54;101099.72;5055644;23;20513;-40
2023/10/04 05:01:23;;;;;;;4.80;2.55;;;;;;;18.23;68.40;101103.75;5033626;28;20037;-41
2023/10/04 05:03:51;;;;;;;4.63;2.80;;;;;;;18.21;67.67;101101.28;5030100;28;20116;-41
2023/10/04 05:06:22;;;;;;;3.63;2.80;;;;;;;18.18;67.14;101109.94;5024172;28;20030;-39
2023/10/04 05:08:49;;;;;;;3.33;2.78;;;;;;;18.17;67.24;101108.28;5029590;28;20144;-40
2023/10/04 05:11:17;;;;;;;3.20;2.67;;;;;;;18.16;66.60;101104.78;5024329;28;20080;-37
2023/10/04 05:13:43;;;;;;;2.72;2.35;;;;;;;18.16;66.94;101106.66;5034119;28;20087;-39
2023/10/04 05:16:10;;;;;;;2.53;2.05;;;;;;;18.28;65.04;101106.53;5033616;28;20056;-40
2023/10/04 05:18:37;;;;;;;3.45;2.28;;;;;;;18.16;65.14;101109.38;5033861;28;20040;-39
2023/10/04 05:21:04;;;;;;;2.42;2.05;;;;;;;18.12;65.66;101106.31;5033490;28;20036;-39
2023/10/04 05:23:30;;;;;;;3.55;2.30;;;;;;;18.13;65.13;101121.50;5032611;28;20071;-39
2023/10/04 05:25:59;;;;;;;3.05;1.88;;;;;;;18.05;65.81;101111.13;5034288;28;20029;-38
2023/10/04 05:28:27;;;;;;;4.72;2.40;;;;;;;18.02;65.63;101110.78;5034057;28;20029;-38
2023/10/04 05:30:53;;;;;;;3.33;2.22;;;;;;;17.99;65.82;101122.94;5033762;28;20482;-38
2023/10/04 05:33:21;;;;;;;3.78;2.15;;;;;;;17.91;66.44;101117.94;5033587;28;20112;-39
2023/10/04 05:35:53;;;;;;;5.28;2.80;;;;;;;17.86;66.74;101117.84;5033940;28;20037;-39
2023/10/04 05:38:20;;;;;;;4.35;2.95;;;;;;;17.82;67.84;101128.38;5033467;28;20025;-39
2023/10/04 05:40:46;;;;;;;3.28;2.78;;;;;;;17.77;68.44;101131.00;5033302;28;20021;-40
2023/10/04 05:43:14;;;;;;;3.40;2.92;;;;;;;17.74;68.64;101134.19;5033072;28;20033;-40
2023/10/04 05:45:42;;;;;;;6.13;3.05;;;;;;;17.68;69.84;101132.44;5033467;28;20036;-39
2023/10/04 05:48:09;;;;;;;6.43;3.58;;;;;;;17.66;70.21;101134.56;5032625;28;20033;-40
2023/10/04 05:50:36;;;;;;;4.80;3.55;;;;;;;17.63;71.00;101125.03;5032973;28;20040;-40
2023/10/04 05:53:06;;;;;;;4.68;3.35;;;;;;;17.63;71.06;101132.34;5033594;28;20485;-39
2023/10/04 05:55:39;;;;;;;5.25;3.30;;;;;;;17.65;71.58;101133.72;5032953;28;20041;-39
2023/10/04 05:58:13;;;;;;;5.07;3.28;;;;;;;17.59;71.58;101129.31;5024205;28;20558;-39
2023/10/04 06:00:42;;;;;;;5.47;3.17;;;;;;;17.54;71.34;101125.69;5024510;28;20025;-40
2023/10/04 06:03:12;;;;;;;3.67;3.10;;;;;;;17.56;71.02;101124.41;5031864;28;20048;-39
2023/10/04 06:05:40;;;;;;;6.63;3.00;;;;;;;17.48;70.81;101121.25;5026801;28;20048;-39
2023/10/04 06:08:12;;;;;;;3.80;2.70;;;;;;;17.40;70.96;101117.91;5032812;28;20052;-39
2023/10/04 06:10:42;;;;;;;5.22;3.00;;;;;;;17.38;70.39;101121.94;5032662;28;20095;-39
2023/10/04 06:13:11;;;;;;;3.67;2.70;;;;;;;17.36;70.39;101124.03;5016243;28;20065;-39
2023/10/04 06:15:47;;;;;;;3.80;2.70;;;;;;;17.29;70.17;101129.63;5031900;28;20081;-38
2023/10/04 06:18:14;;;;;;;4.05;2.47;;;;;;;17.32;70.49;101128.28;5024356;28;20049;-39
2023/10/04 06:20:41;;;;;;;4.63;2.90;;;;;;;17.28;70.16;101129.88;5032796;28;20025;-39
2023/10/04 06:23:09;;;;;;;3.70;2.75;;;;;;;17.25;70.72;101127.63;5032500;28;20033;-39
2023/10/04 06:25:41;;;;;;;5.95;3.50;;;;;;;17.41;70.52;101124.13;5027996;28;20029;-39
2023/10/04 06:28:11;;;;;;;4.57;3.60;;;;;;;17.28;70.77;101132.56;5032307;28;20126;-39
2023/10/04 06:30:39;;;;;;;4.55;3.28;;;;;;;17.23;71.20;101130.59;5027110;28;20585;-39
2023/10/04 06:33:10;;;;;;;4.82;3.22;;;;;;;17.26;71.08;101123.84;5025326;28;20025;-39
2023/10/04 06:35:43;;;;;;;3.85;3.17;;;;;;;17.15;71.73;101131.78;5032824;28;20486;-39
2023/10/04 06:38:10;;;;;;;3.88;3.10;;;;;;;17.20;71.54;101122.94;5020879;28;20458;-39
2023/10/04 06:40:37;;;;;;;4.88;3.40;;;;;;;17.09;72.13;101129.22;5032182;28;20057;-40
2023/10/04 06:43:08;;;;;;;5.22;3.45;;;;;;;17.06;72.48;101130.53;5032468;28;20078;-40
2023/10/04 06:45:36;;;;;;;5.20;2.95;;;;;;;16.98;72.61;101122.81;5032223;28;20394;-39
2023/10/04 06:48:06;;;;;;;5.82;3.85;;;;;;;17.08;71.98;101128.41;5031416;28;20032;-40
2023/10/04 06:50:36;;;;;;;4.65;3.30;;;;;;;17.09;72.26;101130.03;5021019;28;20029;-40
2023/10/04 06:53:04;;;;;;;5.50;3.63;;;;;;;17.03;71.96;101125.59;5032018;28;20068;-41
2023/10/04 06:55:32;;;;;;;7.75;3.25;;;;;;;16.97;72.37;101133.88;5031430;28;20470;-38
2023/10/04 06:57:59;;;;;;;4.40;2.97;;;;;;;16.97;72.07;101131.97;5031793;28;20036;-39
2023/10/04 07:00:31;;;;;;;4.40;3.00;;;;;;;16.88;72.52;101128.03;5031568;28;20052;-39
2023/10/04 07:02:59;;;;;;;3.97;3.10;;;;;;;16.85;72.85;101134.72;5031743;28;20033;-39
2023/10/04 07:05:29;;;;;;;3.88;3.22;;;;;;;16.79;72.83;101127.59;5031729;28;20038;-39
2023/10/04 07:07:59;;;;;;;4.68;3.40;;;;;;;16.77;72.89;101139.72;5031751;28;20029;-39
2023/10/04 07:10:29;;;;;;;5.40;3.17;;;;;;;16.77;73.07;101143.25;5033050;28;20056;-39
2023/10/04 07:12:57;;;;;;;3.92;2.88;;;;;;;16.70;73.27;101130.88;5032648;28;20025;-39
2023/10/04 07:15:27;;;;;;;4.88;3.45;;;;;;;16.68;73.24;101133.00;5032152;28;20398;-40
2023/10/04 07:17:54;;;;;;;6.05;3.35;;;;;;;16.63;73.53;101131.81;5031106;28;20208;-39
2023/10/04 07:20:23;;;;;;;4.65;3.30;;;;;;;16.59;73.26;101135.25;5031754;28;20037;-39
2023/10/04 07:22:59;;;;;;;5.68;3.67;;;;;;;16.56;73.17;101133.03;5031612;28;20040;-42
2023/10/04 07:25:37;;;;;;;3.70;2.92;;;;;;;16.53;73.49;101128.91;5031599;28;20184;-38
2023/10/04 07:28:09;;;;;;;3.95;2.72;;;;;;;16.49;73.12;101130.47;5030663;28;20096;-38
2023/10/04 07:30:36;;;;;;;2.85;2.38;;;;;;;16.49;72.96;101121.50;5031704;28;20121;-39
2023/10/04 07:33:03;;;;;;;3.33;2.50;;;;;;;16.54;72.79;101122.44;5031142;28;20033;-39
2023/10/04 07:35:31;;;;;;;3.03;2.30;;;;;;;16.49;72.67;101121.50;5031003;28;20029;-38
2023/10/04 07:38:01;;;;;;;3.47;2.35;;;;;;;16.45;72.90;101129.28;5030974;28;20067;-39
2023/10/04 07:40:30;;;;;;;3.08;2.22;;;;;;;16.40;72.78;101131.88;5031538;28;20034;-40
2023/10/04 07:42:56;;;;;;;3.70;2.40;;;;;;;16.42;72.74;101132.47;5031647;28;20036;-40
2023/10/04 07:45:33;;;;;;;2.53;2.15;;;;;;;16.36;72.65;101136.94;5031352;28;20036;-39
2023/10/04 07:48:00;;;;;;;2.67;2.33;;;;;;;16.34;72.76;101139.06;5030652;28;20112;-39
2023/10/04 07:50:26;;;;;;;2.53;1.73;;;;;;;16.33;72.95;101142.00;5031168;28;20497;-39
2023/10/04 07:52:59;;;;;;;3.60;2.70;;;;;;;16.24;73.48;101138.00;5031346;28;20034;-39
2023/10/04 07:55:25;;;;;;;2.95;1.83;;;;;;;16.21;73.01;101139.31;5031373;28;20126;-39
2023/10/04 07:58:06;;;;;;;2.38;2.17;;;;;;;16.22;72.99;101142.84;5030051;28;20022;-39
2023/10/04 08:00:36;;;;;;;3.50;2.40;;;;;;;16.39;72.01;101141.06;5031495;28;20064;-39
2023/10/04 08:03:03;;;;;;;2.60;2.17;;;;;;;16.27;72.18;101134.84;5031445;28;20057;-39
2023/10/04 08:05:34;;;;;;;3.30;2.00;;;;;;;16.23;72.29;101133.66;5032325;28;20359;-38
2023/10/04 08:08:02;;;;;;;5.05;2.58;;;;;;;16.14;73.60;101135.88;5034430;28;20052;-39
2023/10/04 08:10:34;;;;;;;3.30;2.03;;;;;;;16.13;73.60;101133.44;5029538;28;20083;-39
2023/10/04 08:13:02;;;;;;;3.60;2.40;;;;;;;16.15;73.70;101136.72;5035304;28;20025;-39
2023/10/04 08:15:30;;;;;;;2.70;2.17;;;;;;;16.11;73.57;101133.69;5035101;28;20037;-39
2023/10/04 08:17:58;;;;;;;3.20;2.45;;;;;;;16.10;74.45;101138.25;5034485;28;20112;-38
2023/10/04 08:20:29;;;;;;;5.07;2.55;;;;;;;16.13;74.88;101141.53;5034577;28;20037;-38
2023/10/04 08:23:02;;;;;;;3.53;2.17;;;;;;;16.09;74.84;101142.00;5034815;28;20452;-39
2023/10/04 08:25:28;;;;;;;2.70;2.10;;;;;;;16.06;75.13;101145.19;5034726;28;20105;-39
2023/10/04 08:27:55;;;;;;;3.45;2.40;;;;;;;16.07;75.28;101143.31;5034831;28;20521;-38
2023/10/04 08:30:22;;;;;;;4.07;2.58;;;;;;;16.05;75.35;101137.31;5034568;28;20048;-38
2023/10/04 08:32:50;;;;;;;2.47;2.03;;;;;;;16.02;75.17;101145.88;5034539;28;20025;-38
2023/10/04 08:35:35;;;;;;;2.72;2.00;;;;;;;15.99;75.21;101146.34;5034477;28;20041;-38
2023/10/04 08:38:06;;;;;;;3.55;2.00;;;;;;;15.98;75.18;101145.50;5034541;28;20121;-38
2023/10/04 08:40:38;;;;;;;3.42;2.25;;;;;;;15.98;75.60;101152.78;5034399;28;20038;-38
2023/10/04 08:43:07;;;;;;;3.15;2.05;;;;;;;15.91;75.63;101152.09;5034978;28;20034;-38
2023/10/04 08:45:34;;;;;;;2.92;2.03;;;;;;;15.95;76.47;101155.97;5034280;28;20018;-38
2023/10/04 08:48:02;;;;;;;3.83;2.10;;;;;;;15.93;76.25;101163.47;5033983;28;20382;-39
2023/10/04 08:50:49;;;;;;;3.38;2.20;;;;;;;15.88;76.23;101166.03;5033995;28;20033;-38
2023/10/04 08:53:32;;;;;;;4.10;2.45;;;;;;;15.85;76.30;101164.66;5014788;28;20050;-38
2023/10/04 08:56:14;;;;;;;2.45;2.10;;;;;;;15.81;76.52;101171.56;5033069;28;20375;-38
2023/10/04 08:58:40;;;;;;;2.60;1.95;;;;;;;15.78;76.64;101163.94;5014019;28;20407;-39
2023/10/04 09:01:07;;;;;;;4.30;2.10;;;;;;;15.74;76.78;101174.38;5031453;28;20108;-39
2023/10/04 09:03:36;;;;;;;2.35;1.95;;;;;;;15.73;76.89;101167.34;5033757;28;20029;-38
2023/10/04 09:06:08;;;;;;;2.70;1.95;;;;;;;15.71;76.86;101172.16;5033847;28;20112;-38
2023/10/04 09:08:34;;;;;;;2.97;1.83;;;;;;;15.67;77.01;101175.53;5033697;28;20542;-38
2023/10/04 09:11:08;;;;;;;2.85;2.20;;;;;;;15.66;76.53;101180.13;5034060;28;20544;-39
2023/10/04 09:13:34;;;;;;;2.63;2.25;;;;;;;15.65;76.72;101177.63;5033850;28;20033;-39
2023/10/04 09:16:20;;;;;;;2.65;1.83;;;;;;;15.63;76.80;101185.97;5033571;28;20075;-38
2023/10/04 09:18:46;;;;;;;2.40;1.90;;;;;;;15.57;76.48;101179.59;5031471;28;20437;-38
2023/10/04 09:21:16;;;;;;;2.53;2.25;;;;;;;15.59;76.65;101173.94;5033739;28;20104;-38
2023/10/04 09:23:46;;;;;;;2.80;2.15;;;;;;;15.55;76.44;101173.59;5033721;28;20025;-38
2023/10/04 09:26:19;;;;;;;2.75;1.92;;;;;;;15.61;76.53;101171.84;5033602;28;20091;-38
2023/10/04 09:28:49;;;;;;;2.22;1.98;;;;;;;15.54;76.52;101181.91;5019558;28;20025;-39
2023/10/04 09:31:18;;;;;;;2.03;1.83;;;;;;;15.54;76.21;101182.72;5033341;28;20033;-39
2023/10/04 09:33:45;;;;;;;4.15;2.13;;;;;;;15.50;77.03;101180.75;5033487;28;20036;-39
2023/10/04 09:36:11;;;;;;;2.67;2.10;;;;;;;15.50;77.19;101184.25;5033345;28;20033;-39
2023/10/04 09:38:39;;;;;;;8.57;2.70;;;;;;;15.46;77.12;101184.94;5033105;28;20117;-39
2023/10/04 09:41:05;;;;;;;4.05;2.03;;;;;;;15.50;76.91;101186.97;5033752;28;20026;-39
2023/10/04 09:43:39;;;;;;;3.20;1.73;;;;;;;15.53;76.55;101191.06;5033018;28;20033;-39
2023/10/04 09:46:09;;;;;;;2.70;2.10;;;;;;;15.51;76.50;101182.38;5033234;28;20041;-39
2023/10/04 09:48:45;;;;;;;2.88;2.03;;;;;;;15.50;76.68;101186.97;5032959;28;20037;-39
2023/10/04 09:51:12;;;;;;;2.53;1.90;;;;;;;15.46;76.37;101180.38;5033809;28;20021;-39
2023/10/04 09:53:39;;;;;;;3.28;1.60;;;;;;;15.44;76.62;101178.97;5033253;28;20033;-38
2023/10/04 09:56:07;;;;;;;3.15;1.75;;;;;;;15.39;76.81;101176.13;5032863;28;20042;-39
2023/10/04 09:58:38;;;;;;;3.38;2.00;;;;;;;15.39;76.65;101174.25;5032937;28;20071;-39
2023/10/04 10:01:12;;;;;;;2.15;1.95;;;;;;;15.37;76.40;101179.03;5033112;28;20033;-39
2023/10/04 10:03:51;;;;;;;2.60;1.90;;;;;;;15.36;76.54;101180.09;5032838;28;20030;-39
2023/10/04 10:06:21;;;;;;;2.13;1.92;;;;;;;15.34;76.40;101176.00;5032406;28;20525;-40
2023/10/04 10:08:53;;;;;;;2.13;1.83;;;;;;;15.33;76.31;101175.19;5032899;28;20035;-39
2023/10/04 10:11:21;;;;;;;2.20;1.88;;;;;;;15.34;76.12;101170.59;5033023;28;20030;-39
2023/10/04 10:13:52;;;;;;;2.17;1.98;;;;;;;15.27;76.47;101173.41;5032000;28;20026;-39
2023/10/04 10:16:19;;;;;;;2.13;1.90;;;;;;;15.26;76.55;101179.81;5032188;28;20045;-39
2023/10/04 10:18:47;;;;;;;2.25;2.05;;;;;;;15.26;76.65;101186.03;5032247;28;20037;-39
2023/10/04 10:21:13;;;;;;;3.83;2.50;;;;;;;15.25;76.54;101180.88;5032673;28;20112;-40
2023/10/04 10:24:03;;;;;;;2.45;1.75;;;;;;;15.23;76.50;101180.28;5032735;28;20021;-39
2023/10/04 10:26:32;;;;;;;2.03;1.83;;;;;;;15.21;76.07;101183.22;5030581;28;20022;-39
2023/10/04 10:29:03;;;;;;;3.95;1.70;;;;;;;15.22;76.25;101178.66;5031287;28;20034;-39
2023/10/04 10:31:30;;;;;;;2.58;2.10;;;;;;;15.19;76.15;101185.31;5032677;28;20021;-39
2023/10/04 10:33:57;;;;;;;3.08;1.75;;;;;;;15.16;76.20;101182.25;5032685;28;20037;-39
2023/10/04 10:36:31;;;;;;;2.63;2.10;;;;;;;15.11;76.15;101182.13;5032188;28;20026;-39
2023/10/04 10:38:58;;;;;;;1.92;1.70;;;;;;;15.12;76.05;101187.28;5029408;28;20031;-39
2023/10/04 10:41:30;;;;;;;2.58;1.67;;;;;;;15.12;76.03;101189.16;5032206;28;20088;-39
2023/10/04 10:44:12;;;;;;;4.35;2.40;;;;;;;15.09;76.08;101190.41;5032590;28;20033;-40
2023/10/04 10:47:00;;;;;;;2.92;1.98;;;;;;;15.15;75.84;101186.00;5031845;28;20033;-39
2023/10/04 10:49:41;;;;;;;4.18;2.00;;;;;;;15.02;76.30;101195.91;5030680;28;20037;-38
2023/10/04 10:52:23;;;;;;;3.45;2.10;;;;;;;15.05;76.34;101186.56;5031935;28;20025;-39
2023/10/04 10:54:51;;;;;;;1.95;1.75;;;;;;;15.04;76.25;101188.41;5032355;28;20033;-39
2023/10/04 10:57:31;;;;;;;2.85;1.73;;;;;;;15.02;76.24;101189.69;5031377;28;20437;-40
2023/10/04 11:00:03;;;;;;;2.08;1.70;;;;;;;15.03;76.21;101196.72;5031632;28;20052;-39
2023/10/04 11:02:30;;;;;;;3.17;1.92;;;;;;;15.04;76.41;101198.34;5031489;28;20034;-39
2023/10/04 11:04:56;;;;;;;3.03;1.98;;;;;;;14.94;76.40;101193.53;5031745;28;20025;-39
2023/10/04 11:07:23;;;;;;;2.15;1.95;;;;;;;14.98;76.34;101201.97;5031807;28;20036;-39
2023/10/04 11:09:51;;;;;;;2.63;1.90;;;;;;;14.95;76.33;101199.75;5031470;28;20038;-39
2023/10/04 11:12:19;;;;;;;2.55;1.88;;;;;;;14.95;76.30;101199.75;5031515;28;20033;-39
2023/10/04 11:14:45;;;;;;;2.28;2.05;;;;;;;14.95;76.24;101194.34;5031810;28;20114;-38
2023/10/04 11:17:13;;;;;;;2.17;1.58;;;;;;;14.96;76.17;101193.28;5031820;28;20048;-39
2023/10/04 11:19:40;;;;;;;3.03;1.92;;;;;;;14.92;76.22;101189.41;5031354;28;20040;-39
2023/10/04 11:22:08;;;;;;;2.63;2.05;;;;;;;14.93;75.99;101197.25;5031577;28;20025;-39
2023/10/04 11:24:37;;;;;;;3.63;2.10;;;;;;;14.88;76.07;101193.59;5031196;28;20474;-39
2023/10/04 11:27:04;;;;;;;3.47;1.77;;;;;;;14.86;76.21;101191.13;5031163;28;20033;-39
2023/10/04 11:29:31;;;;;;;2.70;1.88;;;;;;;14.83;76.56;101196.97;5031036;28;20064;-39
2023/10/04 11:31:58;;;;;;;2.42;1.70;;;;;;;14.80;76.58;101200.09;5031651;28;20026;-39
2023/10/04 11:34:28;;;;;;;3.17;2.00;;;;;;;14.77;76.49;101198.69;5031438;28;20021;-39
2023/10/04 11:37:01;;;;;;;2.25;1.90;;;;;;;14.77;76.51;101203.28;5031377;28;20068;-39
2023/10/04 11:39:35;;;;;;;3.08;1.73;;;;;;;14.74;76.51;101199.13;5031322;28;20026;-39
2023/10/04 11:42:06;;;;;;;2.28;1.60;;;;;;;14.75;76.61;101199.97;5030925;28;20031;-39
2023/10/04 11:44:34;;;;;;;1.90;1.63;;;;;;;14.74;76.60;101199.13;5031536;28;20381;-39